createdAt,value
2022-12-14T00:02:25.798Z,8.10
2022-12-14T00:07:25.768Z,8.10
2022-12-14T00:12:27.700Z,7.30
2022-12-14T00:17:25.696Z,8.30
2022-12-14T00:22:25.669Z,8.60
2022-12-14T00:27:25.569Z,6.90
2022-12-14T00:32:25.547Z,6.70
2022-12-14T00:37:25.420Z,6.10
2022-12-14T00:42:25.381Z,6.40
2022-12-14T00:47:25.460Z,5.80
2022-12-14T00:52:25.237Z,3.80
2022-12-14T00:57:25.225Z,4.90
2022-12-14T01:02:25.207Z,5.20
2022-12-14T01:07:25.086Z,5.70
2022-12-14T01:12:26.188Z,4.70
2022-12-14T01:17:24.989Z,4.70
2022-12-14T01:22:25.118Z,5.20
2022-12-14T01:27:24.874Z,5.20
2022-12-14T01:32:24.803Z,5.10
2022-12-14T01:37:24.763Z,4.90
2022-12-14T01:42:24.751Z,4.70
2022-12-14T01:47:24.738Z,4.30
2022-12-14T01:52:24.625Z,4.50
2022-12-14T01:57:24.609Z,5.40
2022-12-14T02:02:24.633Z,5.70
2022-12-14T02:07:24.491Z,4.40
2022-12-14T02:12:24.407Z,4.70
2022-12-14T02:17:24.422Z,4.60
2022-12-14T02:22:24.302Z,4.80
2022-12-14T02:27:26.309Z,4.20
2022-12-14T02:32:24.256Z,4.90
2022-12-14T02:37:24.165Z,4.30
2022-12-14T03:00:48.413Z,5.20
2022-12-14T03:05:48.292Z,5.50
2022-12-14T03:10:48.327Z,5.70
2022-12-14T03:15:48.285Z,5.40
2022-12-14T03:20:48.379Z,5.70
2022-12-14T03:25:48.655Z,5.60
2022-12-14T03:31:03.047Z,5.50
2022-12-14T03:35:48.955Z,6.40
2022-12-14T03:40:47.858Z,6.50
2022-12-14T03:45:47.981Z,6.60
2022-12-14T03:50:47.784Z,6.40
2022-12-14T03:55:49.028Z,7.30
2022-12-14T04:00:47.806Z,7.20
2022-12-14T04:05:49.281Z,7.20
2022-12-14T04:10:47.544Z,7.60
2022-12-14T04:15:47.529Z,8.10
2022-12-14T04:20:47.510Z,8.20
2022-12-14T04:25:47.407Z,8.30
2022-12-14T04:30:47.361Z,7.60
2022-12-14T04:35:47.271Z,7.60
2022-12-14T04:40:47.280Z,7.00
2022-12-14T04:45:47.288Z,6.70
2022-12-14T04:50:47.092Z,7.30
2022-12-14T04:55:47.037Z,6.90
2022-12-14T05:00:47.032Z,7.20
2022-12-14T05:05:46.945Z,6.80
2022-12-14T05:10:46.828Z,6.70
2022-12-14T05:15:46.809Z,7.10
2022-12-14T05:20:47.865Z,6.50
2022-12-14T05:25:48.978Z,7.00
2022-12-14T05:30:48.849Z,7.10
2022-12-14T05:35:46.819Z,6.40
2022-12-14T05:40:46.581Z,7.00
2022-12-14T05:45:46.531Z,6.50
2022-12-14T05:50:46.478Z,6.10
2022-12-14T05:55:46.405Z,6.40
2022-12-14T06:00:46.385Z,5.60
2022-12-14T06:05:47.420Z,6.10
2022-12-14T06:10:46.258Z,6.50
2022-12-14T06:15:47.317Z,6.20
2022-12-14T06:20:48.256Z,7.50
2022-12-14T06:25:46.045Z,6.60
2022-12-14T06:30:46.034Z,6.40
2022-12-14T06:35:45.958Z,6.10
2022-12-14T06:40:45.920Z,5.90
2022-12-14T06:45:45.838Z,6.00
2022-12-14T06:50:46.008Z,6.60
2022-12-14T06:55:45.918Z,6.60
2022-12-14T07:00:45.713Z,6.00
2022-12-14T07:05:48.942Z,5.20
2022-12-14T07:10:45.649Z,6.00
2022-12-14T07:15:45.551Z,7.50
2022-12-14T07:20:45.578Z,5.60
2022-12-14T07:25:45.496Z,6.80
2022-12-14T07:30:45.408Z,7.10
2022-12-14T07:35:45.325Z,7.70
2022-12-14T07:40:45.404Z,7.30
2022-12-14T07:45:45.292Z,7.50
2022-12-14T07:50:46.346Z,7.80
2022-12-14T07:55:45.109Z,7.80
2022-12-14T08:00:45.096Z,7.50
2022-12-14T08:05:50.441Z,8.30
2022-12-14T08:10:45.103Z,7.70
2022-12-14T08:15:45.016Z,8.10
2022-12-14T08:20:50.035Z,7.90
2022-12-14T08:25:45.796Z,8.30
2022-12-14T08:30:44.790Z,12.70
2022-12-14T08:35:44.799Z,10.10
2022-12-14T08:40:54.070Z,8.20
2022-12-14T08:45:44.500Z,9.50
2022-12-14T08:50:44.464Z,8.30
2022-12-14T08:55:45.412Z,8.60
2022-12-14T09:00:44.430Z,9.80
2022-12-14T09:05:44.286Z,10.70
2022-12-14T09:10:44.233Z,9.40
2022-12-14T09:15:44.193Z,9.70
2022-12-14T09:20:44.162Z,9.50
2022-12-14T09:25:44.066Z,11.60
2022-12-14T09:30:44.057Z,12.00
2022-12-14T09:35:43.964Z,11.30
2022-12-14T09:40:43.926Z,10.10
2022-12-14T09:45:43.913Z,12.90
2022-12-14T09:50:43.817Z,10.10
2022-12-14T09:55:43.765Z,9.60
2022-12-14T10:00:48.118Z,8.20
2022-12-14T10:05:44.696Z,8.60
2022-12-14T10:10:43.712Z,7.90
2022-12-14T10:15:43.643Z,15.30
2022-12-14T10:20:43.534Z,12.20
2022-12-14T10:25:43.461Z,9.30
2022-12-14T10:30:43.414Z,9.20
2022-12-14T10:35:43.331Z,8.90
2022-12-14T10:40:44.298Z,11.00
2022-12-14T10:45:44.256Z,12.80
2022-12-14T10:50:43.264Z,11.20
2022-12-14T10:55:44.143Z,11.60
2022-12-14T11:00:43.042Z,10.50
2022-12-14T11:05:43.067Z,11.50
2022-12-14T11:10:42.985Z,11.00
2022-12-14T11:15:42.911Z,14.70
2022-12-14T11:20:43.010Z,12.00
2022-12-14T11:25:42.796Z,11.00
2022-12-14T11:30:42.896Z,12.40
2022-12-14T11:35:43.771Z,11.20
2022-12-14T11:40:42.708Z,12.60
2022-12-14T11:45:42.578Z,13.40
2022-12-14T11:50:43.547Z,16.90
2022-12-14T11:55:42.471Z,12.30
2022-12-14T12:00:46.744Z,10.40
2022-12-14T12:05:42.366Z,10.80
2022-12-14T12:10:42.385Z,11.60
2022-12-14T12:15:43.383Z,11.50
2022-12-14T12:20:43.256Z,12.50
2022-12-14T12:25:42.144Z,11.70
2022-12-14T12:30:43.157Z,11.10
2022-12-14T12:35:42.037Z,10.40
2022-12-14T12:40:41.976Z,11.00
2022-12-14T12:45:41.917Z,10.30
2022-12-14T12:50:41.888Z,10.90
2022-12-14T12:55:41.826Z,10.10
2022-12-14T13:00:41.810Z,10.40
2022-12-14T13:05:46.806Z,10.90
2022-12-14T13:11:02.477Z,12.00
2022-12-14T13:15:42.653Z,11.80
2022-12-14T13:20:41.656Z,10.90
2022-12-14T13:25:41.620Z,11.30
2022-12-14T13:30:41.443Z,11.50
2022-12-14T13:35:41.431Z,11.60
2022-12-14T13:40:41.335Z,12.40
2022-12-14T13:45:41.266Z,11.80
2022-12-14T13:50:52.977Z,12.30
2022-12-14T13:55:42.132Z,12.30
2022-12-14T14:00:41.184Z,11.90
2022-12-14T14:05:41.055Z,11.50
2022-12-14T14:10:41.047Z,11.40
2022-12-14T14:16:04.030Z,11.60
2022-12-14T14:20:41.945Z,12.10
2022-12-14T14:25:40.932Z,13.00
2022-12-14T14:30:40.818Z,12.40
2022-12-14T14:35:40.739Z,11.90
2022-12-14T14:45:41.779Z,13.70
2022-12-14T14:50:40.567Z,13.30
2022-12-14T14:55:55.982Z,12.70
2022-12-14T15:00:43.589Z,12.50
2022-12-14T15:05:42.623Z,13.70
2022-12-14T15:10:40.515Z,12.90
2022-12-14T15:15:42.584Z,12.70
2022-12-14T15:20:41.665Z,12.70
2022-12-14T15:25:40.245Z,13.10
2022-12-14T15:30:40.201Z,12.80
2022-12-14T15:35:40.141Z,12.70
2022-12-14T15:40:40.078Z,13.00
2022-12-14T15:45:40.133Z,13.80
2022-12-14T15:50:39.963Z,14.30
2022-12-14T15:55:39.957Z,13.90
2022-12-14T16:00:39.970Z,14.40
2022-12-14T16:05:40.755Z,15.00
2022-12-14T16:10:39.761Z,16.70
2022-12-14T16:15:39.668Z,17.10
2022-12-14T16:20:39.620Z,16.50
2022-12-14T16:25:39.568Z,18.30
2022-12-14T16:30:39.630Z,18.40
2022-12-14T16:35:39.448Z,15.10
2022-12-14T16:40:39.444Z,16.40
2022-12-14T16:45:39.428Z,16.40
2022-12-14T16:50:56.299Z,17.30
2022-12-14T16:55:40.358Z,56.60
2022-12-14T17:00:39.232Z,23.50
2022-12-14T17:05:39.217Z,26.20
2022-12-14T17:10:39.133Z,20.60
2022-12-14T17:15:39.096Z,27.20
2022-12-14T17:20:39.024Z,23.20
2022-12-14T17:25:46.063Z,24.70
2022-12-14T17:30:39.919Z,25.50
2022-12-14T17:35:38.936Z,22.00
2022-12-14T17:40:38.826Z,24.80
2022-12-14T17:45:38.746Z,24.70
2022-12-14T17:50:38.692Z,24.40
2022-12-14T17:55:38.613Z,23.70
2022-12-14T18:00:38.650Z,21.60
2022-12-14T18:05:46.600Z,23.10
2022-12-14T18:10:40.440Z,23.90
2022-12-14T18:15:38.435Z,18.00
2022-12-14T18:20:38.337Z,21.70
2022-12-14T18:25:39.445Z,19.20
2022-12-14T18:30:43.041Z,18.30
2022-12-14T18:35:39.228Z,20.10
2022-12-14T18:40:38.182Z,20.10
2022-12-14T18:45:38.139Z,22.10
2022-12-14T18:50:42.579Z,26.70
2022-12-14T18:55:38.123Z,24.20
2022-12-14T19:00:37.991Z,23.30
2022-12-14T19:05:37.862Z,22.30
2022-12-14T19:10:37.966Z,30.80
2022-12-14T19:15:38.803Z,28.20
2022-12-14T19:20:37.798Z,28.80
2022-12-14T19:25:37.711Z,27.00
2022-12-14T19:30:37.669Z,26.10
2022-12-14T19:35:37.648Z,26.10
2022-12-14T19:40:37.567Z,21.10
2022-12-14T19:45:37.469Z,33.20
2022-12-14T19:50:37.431Z,23.30
2022-12-14T19:55:37.338Z,30.10
2022-12-14T20:00:37.305Z,25.80
2022-12-14T20:05:37.261Z,25.50
2022-12-14T20:10:37.332Z,27.20
2022-12-14T20:15:37.246Z,21.40
2022-12-14T20:20:37.100Z,25.60
2022-12-14T20:25:37.095Z,25.30
2022-12-14T20:30:37.012Z,28.30
2022-12-14T20:35:36.915Z,25.50
2022-12-14T20:40:38.826Z,26.60
2022-12-14T20:45:36.902Z,24.90
2022-12-14T20:50:36.745Z,25.30
2022-12-14T20:55:36.704Z,25.90
2022-12-14T21:00:36.681Z,25.90
2022-12-14T21:05:36.593Z,24.30
2022-12-14T21:10:36.519Z,22.60
2022-12-14T21:15:36.495Z,24.80
2022-12-14T21:20:36.466Z,26.80
2022-12-14T21:25:36.350Z,27.10
2022-12-14T21:30:36.355Z,27.10
2022-12-14T21:35:36.256Z,26.70
2022-12-14T21:40:36.278Z,26.60
2022-12-14T21:45:36.209Z,27.30
2022-12-14T21:50:36.102Z,26.90
2022-12-14T21:55:36.183Z,27.50
2022-12-14T22:00:36.034Z,25.90
2022-12-14T22:05:35.998Z,25.30
2022-12-14T22:10:35.924Z,24.40
2022-12-14T22:15:35.824Z,23.00
2022-12-14T22:20:35.782Z,24.70
2022-12-14T22:25:35.712Z,43.80
2022-12-14T22:30:35.679Z,28.40
2022-12-14T22:35:35.634Z,28.70
2022-12-14T22:40:35.598Z,28.40
2022-12-14T22:45:35.677Z,24.90
2022-12-14T22:50:35.488Z,26.70
2022-12-14T22:55:35.404Z,23.90
2022-12-14T23:00:35.437Z,25.20
2022-12-14T23:05:35.331Z,30.30
2022-12-14T23:10:35.327Z,27.10
2022-12-14T23:15:35.201Z,27.00
2022-12-14T23:20:35.161Z,31.50
2022-12-14T23:25:35.157Z,32.40
2022-12-14T23:30:35.096Z,28.40
2022-12-14T23:35:35.005Z,30.00
2022-12-14T23:40:34.917Z,30.60
2022-12-14T23:45:34.860Z,30.20
2022-12-14T23:50:34.965Z,34.50
2022-12-14T23:55:34.783Z,35.20
